^^

Nearby METAR Reports


   No special awareness required.   -   There are no Weather warnings Today

EGAC - Belfast Harbour, United Kingdom
Distance from station: W 8mi, 13km
Updated: 12/07/2020 20:50
Overcast
Overcast
 Wind from SSW
Wind: SSW 14 mph , 22 km/h
Temperature: 17°C
Dew Point: 13°C
Humidity: 77%
Barometer: 1022 hPa
Clouds: Overcast
Visibility: 6 miles , 10 km
Cloud details: Mostly cloudy 732 m
Mostly cloudy 1219 m
Overcast 1402 m
2020/07/12 19:50 EGAC 121950Z AUTO 20012KT 9999 BKN024/// BKN040/// OVC046/// 17/13 Q1022
EGAA - Belfast/Aldergro, United Kingdom
Distance from station: W 22mi, 35km
Updated: 12/07/2020 20:50
Light rain, Mostly cloudy
Light rain, Mostly cloudy
 Wind from S
Wind: S 9 mph , 15 km/h
Temperature: 16°C
Dew Point: 14°C
Humidity: 88%
Barometer: 1022 hPa
Summary: Light rain
Clouds: Mostly cloudy
Visibility: 4 miles , 7 km
Cloud details: Mostly cloudy 488 m
2020/07/12 19:50 EGAA 121950Z 19008KT 7000 -RA BKN016 16/14 Q1022
 
EGNS - Isle Of Man/Rona, United Kingdom
Distance from station: SE 57mi, 91km
Updated: 12/07/2020 20:50
Few Clouds
Few Clouds
 Wind from SSW
Wind: SSW 13 mph , 20 km/h
Temperature: 14°C
Dew Point: 12°C
Humidity: 88%
Barometer: 1024 hPa
Clouds: Few Clouds
Visibility: 6 miles , 10 km
Cloud details: Few Clouds 396 m
2020/07/12 19:50 EGNS 121950Z 21011KT 180V240 9999 FEW013 14/12 Q1024
EGPK - Prestwick(Civ/Na, United Kingdom
Distance from station: NE 74mi, 119km
Updated: 12/07/2020 20:50
Partly cloudy
Partly cloudy
 Wind from S
Wind: S 12 mph , 19 km/h
Temperature: 16°C
Dew Point: 11°C
Humidity: 72%
Barometer: 1022 hPa
Clouds: Partly cloudy
Visibility: 6 miles , 10 km
Cloud details: Few Clouds 1219 m
Partly cloudy 1463 m
2020/07/12 19:50 EGPK 121950Z 18010KT 9999 FEW040 SCT048 16/11 Q1022
 
EIDW - Dublin Airport, Ireland
Distance from station: SSW 87mi, 141km
Updated: 12/07/2020 21:00
Mostly cloudy
Mostly cloudy
 Wind from SW
Wind: SW 8 mph , 13 km/h
Temperature: 17°C
Dew Point: 12°C
Humidity: 73%
Barometer: 1023 hPa
Clouds: Mostly cloudy
Visibility: 6 miles , 10 km
Cloud details: Few Clouds 671 m
Mostly cloudy 1829 m
2020/07/12 20:00 EIDW 122000Z 22007KT 170V280 9999 FEW022 BKN060 17/12 Q1023 NOSIG
EGPF - Glasgow Airport, United Kingdom
Distance from station: NNE 98mi, 158km
Updated: 12/07/2020 20:50
Overcast
Overcast
 Wind from S
Wind: S 8 mph , 13 km/h
Temperature: 16°C
Dew Point: 11°C
Humidity: 72%
Barometer: 1022 hPa
Clouds: Overcast
Visibility: 6 miles , 10 km
Cloud details: Overcast 945 m
2020/07/12 19:50 EGPF 121950Z AUTO 19007KT 160V230 9999 OVC031 16/11 Q1022